Coober Pedy, South Australia

6:30 PM CST on August 20, 2014 (GMT +0930)
Coober Pedy | Change Station
CLOSE
Current Station
Airport
Location: Coober Pedy Airport,
Elevation: 738 ft
Nearby Weather Stations

Elev 738 ft 29.04 °S, 134.72 °E | Updated 1 hour ago

Clear
Clear
63 °F
Feels Like 63 °F
N
7
Wind Variable Wind from ESE

Today
High -- | Low -- °F
--% Chance of Precip.
Yesterday
High -- | Low -- °F
Precip. -- in
6:59 AM 6:10 PM
Waning Crescent, 23% visible
Pressure 30.15 in
Visibility -9999.0 miles
Clouds
Dew Point 30 °F
Humidity 30%
Rainfall 0.00 in
Snow Depth Not available.
UV Not available.
Pollen Not available.
Air Quality Not available.
Flu Activity Not available.
METAR YCBP 200800Z AUTO 12006KT 100V180 //// // NCD 17/M01 Q1021

More Conditions Fewer Conditions

Pressure 30.15 in
Visibility -9999.0 miles
Clouds
Dew Point 30 °F
Humidity 30%
Rainfall 0.00 in
Snow Depth Not available.
UV Not available.
Pollen Not available.
Air Quality Not available.
Flu Activity Not available.
METAR YCBP 200800Z AUTO 12006KT 100V180 //// // NCD 17/M01 Q1021

More Conditions Fewer Conditions

10-Day Weather Forecast

Almanac

Astronomy

Aug. 20, 2014 Rise Set
Actual Time 6:59 AM CST 6:10 PM CST
Civil Twilight 6:34 AM CST 6:34 PM CST
Nautical Twilight 6:07 AM CST 7:02 PM CST
Astronomical Twilight 5:39 AM CST 7:30 PM CST
Moon 2:50 AM CST 1:43 PM CST
Length of Visible Light 11h 59m
Length of Day
11h 11m
Tomorrow will be 1m 31s longer.
Waning Crescent, 23% of the Moon is Illuminated
Today
Waning Crescent
Aug 25
New
Sep 2
First Quarter
Sep 8
Full
Sep 15
Last Quarter

Yesterday's Extremes

Country Highs Country Lows

Community

WunderPhotos

Upload Photos

1,745,604 photos uploaded!

Nearby

Snow Depth

Not available.

Earthquake Activity

City Distance Mag. Time & Date
No recent earthquake activity has been reported nearby.
Minimum magnitude displayed is 2.5.

Coastal Water Temperatures

Place Temperature
No Stations Reporting

Nearby Weather Stations